CheckWX is a tool to help pilots better visualize weather data.  It is not intended as a substitute for an official pre-flight weather briefing.

14:02:54 UTC

AGGH METAR
Honiara International Airport
Honiara, Solomon Islands
Current

1 hour ago

AGGH 251300Z 00000KT 9999 FEW015 25/25 Q1009
Observed
Apr-25 @ 13:00 UTC
Visibility
10,000+ meters
Flight Rules
VFR
Cloud Levels
  • Few at 1,500' AGL
Temperature
25°C / 77°F
Dewpoint
25°C / 77°F
Humidity
100%
Altimeter
29.79" Hg
Pressure
1008.92 hPa
Previous

2 hours ago

AGGH 251200Z 20002KT 9999 HZ FEW015 SCT300 25/25 Q1009
Observed
Apr-25 @ 12:00 UTC
Wind
  • 200° at 2 KTS
Visibility
10,000+ meters
Flight Rules
VFR
Conditions
Haze
Cloud Levels
  • Few at 1,500' AGL
  • Scattered at 30,000' AGL
Temperature
25°C / 77°F
Dewpoint
25°C / 77°F
Humidity
100%
Altimeter
29.79" Hg
Pressure
1008.92 hPa
Previous

3 hours ago

AGGH 251100Z 00000KT 9999 HZ FEW015 SCT300 25/25 Q1009
Observed
Apr-25 @ 11:00 UTC
Visibility
10,000+ meters
Flight Rules
VFR
Conditions
Haze
Cloud Levels
  • Few at 1,500' AGL
  • Scattered at 30,000' AGL
Temperature
25°C / 77°F
Dewpoint
25°C / 77°F
Humidity
100%
Altimeter
29.79" Hg
Pressure
1008.92 hPa